createdAt,value
2023-07-16T00:05:01.498Z,6.15
2023-07-16T00:11:08.939Z,6.13
2023-07-16T00:17:39.823Z,8.43
2023-07-16T00:23:42.869Z,6.00
2023-07-16T00:29:55.503Z,8.05
2023-07-16T00:35:57.870Z,5.97
2023-07-16T00:42:01.336Z,5.60
2023-07-16T00:48:26.790Z,6.70
2023-07-16T00:54:34.352Z,6.68
2023-07-16T01:00:44.979Z,4.72
2023-07-16T01:06:58.408Z,7.78
2023-07-16T01:13:06.917Z,6.32
2023-07-16T01:19:12.039Z,8.10
2023-07-16T01:25:47.982Z,5.72
2023-07-16T01:32:17.408Z,6.90
2023-07-16T01:38:26.068Z,8.20
2023-07-16T01:44:30.510Z,8.07
2023-07-16T01:50:40.061Z,8.77
2023-07-16T01:57:05.922Z,9.40
2023-07-16T02:03:16.217Z,7.63
2023-07-16T02:09:27.834Z,7.07
2023-07-16T02:15:31.072Z,5.87
2023-07-16T02:21:36.574Z,7.20
2023-07-16T02:27:38.998Z,7.17
2023-07-16T02:33:41.550Z,7.30
2023-07-16T02:39:55.014Z,5.83
2023-07-16T02:46:07.517Z,6.10
2023-07-16T02:52:12.019Z,5.43
2023-07-16T02:58:18.541Z,7.73
2023-07-16T03:04:31.011Z,5.83
2023-07-16T03:10:41.361Z,5.30
2023-07-16T03:16:49.974Z,6.83
2023-07-16T03:23:10.864Z,5.30
2023-07-16T03:29:18.961Z,5.30
2023-07-16T03:35:29.478Z,5.83
2023-07-16T03:41:36.916Z,4.47
2023-07-16T03:47:59.123Z,4.47
2023-07-16T03:54:07.200Z,4.90
2023-07-16T04:00:17.534Z,7.10
2023-07-16T04:06:38.001Z,5.87
2023-07-16T04:12:43.499Z,6.57
2023-07-16T04:18:50.018Z,6.83
2023-07-16T04:25:03.464Z,7.17
2023-07-16T04:31:14.020Z,8.27
2023-07-16T04:37:33.476Z,8.02
2023-07-16T04:43:38.970Z,10.18
2023-07-16T04:50:08.056Z,7.80
2023-07-16T04:56:34.871Z,6.13
2023-07-16T05:09:11.269Z,6.15
2023-07-16T05:30:30.491Z,5.88
2023-07-16T05:43:28.664Z,5.57
2023-07-16T05:50:27.350Z,7.20
2023-07-16T05:57:02.120Z,5.93
2023-07-16T06:10:20.324Z,5.63
2023-07-16T06:16:23.740Z,5.75
2023-07-16T06:22:10.650Z,6.50
2023-07-16T06:22:30.877Z,5.88
2023-07-16T06:28:37.578Z,5.65
2023-07-16T06:34:53.962Z,5.50
2023-07-16T06:41:41.744Z,5.45
2023-07-16T06:55:51.483Z,6.25
2023-07-16T07:09:35.741Z,5.80
2023-07-16T07:16:29.227Z,5.85
2023-07-16T07:31:09.919Z,4.60
2023-07-16T07:37:24.952Z,4.53
2023-07-16T07:51:11.728Z,4.75
2023-07-16T08:32:31.529Z,4.15
2023-07-16T08:58:44.207Z,4.25
2023-07-16T09:06:20.958Z,3.88
2023-07-16T09:11:49.802Z,4.05
2023-07-16T09:27:28.541Z,3.45
2023-07-16T09:33:21.985Z,4.07
2023-07-16T09:40:00.869Z,4.10
2023-07-16T10:00:14.583Z,4.20
2023-07-16T10:06:47.943Z,4.22
2023-07-16T10:13:48.467Z,4.03
2023-07-16T10:33:27.765Z,4.45
2023-07-16T10:39:48.316Z,4.20
2023-07-16T10:45:59.606Z,4.22
2023-07-16T10:59:35.816Z,4.47
2023-07-16T11:05:33.664Z,4.20
2023-07-16T11:34:02.467Z,4.18
2023-07-16T11:40:33.875Z,4.40
2023-07-16T12:14:16.585Z,3.47
2023-07-16T12:20:57.643Z,3.25
2023-07-16T12:34:18.356Z,3.97
2023-07-16T12:41:11.813Z,4.07
2023-07-16T12:47:19.858Z,3.67
2023-07-16T12:54:22.075Z,4.10
2023-07-16T13:07:27.724Z,3.45
2023-07-16T13:14:07.493Z,3.50
2023-07-16T13:20:35.720Z,3.28
2023-07-16T13:26:40.406Z,4.05
2023-07-16T13:32:57.804Z,3.85
2023-07-16T13:40:53.474Z,4.07
2023-07-16T13:46:56.921Z,3.70
2023-07-16T13:53:27.235Z,4.07
2023-07-16T14:05:57.996Z,3.53
2023-07-16T14:12:08.609Z,3.65
2023-07-16T14:25:02.755Z,3.58
2023-07-16T14:31:17.948Z,3.67
2023-07-16T14:37:28.819Z,3.25
2023-07-16T14:43:44.201Z,3.53
2023-07-16T14:49:54.833Z,3.35
2023-07-16T14:56:15.496Z,3.70
2023-07-16T15:02:32.789Z,3.53
2023-07-16T15:09:01.061Z,3.65
2023-07-16T15:15:14.777Z,3.47
2023-07-16T15:21:28.502Z,3.15
2023-07-16T15:27:50.115Z,3.20
2023-07-16T15:33:59.255Z,3.13
2023-07-16T15:40:14.890Z,3.10
2023-07-16T15:46:21.383Z,3.50
2023-07-16T15:53:04.989Z,3.25
2023-07-16T15:59:40.835Z,3.13
2023-07-16T16:05:50.121Z,3.05
2023-07-16T16:12:20.312Z,3.13
2023-07-16T16:18:35.073Z,3.00
2023-07-16T16:31:50.912Z,3.65
2023-07-16T16:45:24.166Z,3.50
2023-07-16T16:51:51.269Z,3.70
2023-07-16T17:19:47.530Z,3.40
2023-07-16T17:26:04.026Z,4.07
2023-07-16T17:32:34.890Z,4.35
2023-07-16T17:38:37.604Z,3.72
2023-07-16T17:44:50.088Z,3.53
2023-07-16T17:51:06.122Z,3.35
2023-07-16T17:57:16.185Z,3.90
2023-07-16T18:03:29.138Z,3.78
2023-07-16T18:09:36.171Z,3.40
2023-07-16T18:15:48.698Z,4.00
2023-07-16T18:22:07.002Z,3.90
2023-07-16T18:28:15.718Z,3.50
2023-07-16T18:34:22.446Z,4.50
2023-07-16T18:40:34.955Z,4.20
2023-07-16T18:46:47.580Z,4.18
2023-07-16T18:52:50.985Z,4.55
2023-07-16T18:58:53.798Z,5.32
2023-07-16T19:05:05.649Z,6.20
2023-07-16T19:11:13.997Z,6.05
2023-07-16T19:17:20.667Z,4.35
2023-07-16T19:23:24.575Z,6.00
2023-07-16T19:29:27.035Z,5.75
2023-07-16T19:35:32.099Z,6.18
2023-07-16T19:41:37.026Z,5.32
2023-07-16T19:47:43.136Z,5.10
2023-07-16T19:53:57.878Z,4.35
2023-07-16T20:00:02.483Z,6.40
2023-07-16T20:06:07.994Z,4.28
2023-07-16T20:12:17.428Z,3.33
2023-07-16T20:18:20.257Z,4.45
2023-07-16T20:24:26.642Z,5.97
2023-07-16T20:30:33.575Z,7.40
2023-07-16T20:36:35.792Z,7.15
2023-07-16T20:48:55.985Z,4.90
2023-07-16T20:54:59.890Z,8.38
2023-07-16T21:01:05.696Z,7.85
2023-07-16T21:07:09.227Z,10.90
2023-07-16T21:13:23.656Z,12.13
2023-07-16T21:19:37.217Z,8.27
2023-07-16T21:25:52.703Z,17.10
2023-07-16T21:31:56.987Z,12.70
2023-07-16T21:38:01.661Z,14.52
2023-07-16T21:44:05.063Z,12.65
2023-07-16T21:50:16.141Z,11.23
2023-07-16T21:56:18.584Z,8.23
2023-07-16T22:02:23.753Z,8.55
2023-07-16T22:08:26.854Z,9.55
2023-07-16T22:14:30.453Z,8.00
2023-07-16T22:20:38.965Z,5.88
2023-07-16T22:26:44.478Z,8.68
2023-07-16T22:32:50.929Z,6.80
2023-07-16T22:38:55.379Z,7.22
2023-07-16T22:44:57.889Z,7.80
2023-07-16T22:51:05.378Z,7.63
2023-07-16T22:57:08.850Z,6.82
2023-07-16T23:03:11.465Z,7.50
2023-07-16T23:09:17.074Z,7.47
2023-07-16T23:15:28.303Z,5.93
2023-07-16T23:21:40.728Z,6.82
2023-07-16T23:27:59.107Z,5.28
2023-07-16T23:34:11.714Z,5.05
2023-07-16T23:40:14.298Z,4.50
2023-07-16T23:46:22.751Z,4.80
2023-07-16T23:52:27.177Z,5.35
2023-07-16T23:58:31.030Z,8.75
